Time;durP1;ratioP1;P1;durP2;ratioP2;P2;SDS_P1;SDS_P2;PMS_P1;PMS_P2;Temp;Humidity;BMP_temperature;BMP_pressure;BME280_temperature;BME280_humidity;BME280_pressure;Samples;Min_cycle;Max_cycle;Signal;HPM_P1;HPM_P2
2022/07/29 00:08:00;;;;;;;9.13;8.10;;;;;26.20;98674.00;;;;16762392;28;20232;-49
2022/07/29 00:16:03;;;;;;;7.37;6.70;;;;;26.10;98663.00;;;;16752213;28;20201;-49
2022/07/29 00:24:07;;;;;;;7.30;6.60;;;;;26.00;98654.00;;;;16748202;28;20228;-48
2022/07/29 00:32:09;;;;;;;7.73;7.13;;;;;25.90;98656.00;;;;16761519;28;20213;-48
2022/07/29 00:40:13;;;;;;;9.43;8.70;;;;;24.70;98656.00;;;;16749588;28;20222;-48
2022/07/29 00:48:16;;;;;;;7.73;6.77;;;;;24.70;98652.00;;;;16754837;22;20228;-72
2022/07/29 00:56:20;;;;;;;7.47;6.77;;;;;24.30;98645.00;;;;16734487;28;20665;-72
2022/07/29 01:04:23;;;;;;;8.03;7.23;;;;;23.60;98656.00;;;;16766037;28;20205;-72
2022/07/29 01:12:28;;;;;;;8.07;7.47;;;;;22.80;98642.00;;;;16760422;28;20249;-72
2022/07/29 01:20:45;;;;;;;8.30;7.60;;;;;24.40;98625.00;;;;16735814;28;20316;-72
2022/07/29 01:29:04;;;;;;;8.00;7.30;;;;;24.40;98627.00;;;;16756474;28;20263;-72
2022/07/29 01:37:12;;;;;;;8.33;7.63;;;;;24.20;98623.00;;;;16738008;28;20307;-72
2022/07/29 01:45:19;;;;;;;8.23;7.43;;;;;23.90;98624.00;;;;16733646;28;20698;-72
2022/07/29 01:53:28;;;;;;;8.73;8.03;;;;;22.10;98635.00;;;;16759195;28;20322;-71
2022/07/29 02:01:33;;;;;;;6.83;6.30;;;;;23.50;98633.00;;;;16776884;28;20217;-72
2022/07/29 02:09:37;;;;;;;6.60;6.00;;;;;23.90;98623.00;;;;16742046;28;20764;-72
2022/07/29 02:17:44;;;;;;;7.53;6.70;;;;;23.50;98617.00;;;;16737178;28;20231;-71
2022/07/29 02:25:50;;;;;;;7.83;7.13;;;;;22.60;98604.00;;;;16754768;28;20221;-71
2022/07/29 02:33:54;;;;;;;8.47;7.77;;;;;21.60;98614.00;;;;16747028;28;20225;-71
2022/07/29 02:42:03;;;;;;;9.40;7.87;;;;;21.80;98607.00;;;;16750257;28;20213;-71
2022/07/29 02:50:10;;;;;;;7.07;6.57;;;;;23.00;98605.00;;;;16750970;28;20222;-71
2022/07/29 02:58:16;;;;;;;7.17;6.57;;;;;22.10;98612.00;;;;16745254;28;20238;-71
2022/07/29 03:06:21;;;;;;;6.90;6.40;;;;;22.90;98606.00;;;;16757849;28;20294;-71
2022/07/29 03:14:24;;;;;;;7.17;6.60;;;;;21.20;98621.00;;;;16769729;28;20279;-71
2022/07/29 03:22:29;;;;;;;7.67;7.07;;;;;22.40;98619.00;;;;16755214;28;20210;-71
2022/07/29 03:30:31;;;;;;;7.20;6.70;;;;;21.40;98611.00;;;;16753045;28;20736;-71
2022/07/29 03:38:36;;;;;;;6.70;6.20;;;;;21.10;98611.00;;;;16747434;28;20294;-71
2022/07/29 03:46:40;;;;;;;8.00;7.40;;;;;21.00;98623.00;;;;16746446;28;20295;-71
2022/07/29 03:54:44;;;;;;;6.37;5.87;;;;;21.80;98621.00;;;;16750840;28;20216;-71
2022/07/29 04:02:48;;;;;;;7.30;6.60;;;;;20.90;98623.00;;;;16753192;28;20197;-71
2022/07/29 04:10:52;;;;;;;6.90;6.50;;;;;21.80;98633.00;;;;16750792;28;20222;-71
2022/07/29 04:18:55;;;;;;;6.20;5.70;;;;;22.30;98628.00;;;;16754307;28;20275;-70
2022/07/29 04:26:59;;;;;;;8.30;7.50;;;;;20.20;98639.00;;;;16769870;28;20229;-71
2022/07/29 04:35:01;;;;;;;5.50;5.10;;;;;22.40;98638.00;;;;16779326;28;20623;-71
2022/07/29 04:43:06;;;;;;;6.30;5.80;;;;;23.20;98632.00;;;;16748083;28;20197;-71
2022/07/29 04:51:08;;;;;;;7.03;6.27;;;;;21.40;98624.00;;;;16774972;28;20217;-71
2022/07/29 04:59:12;;;;;;;6.80;6.27;;;;;22.30;98633.00;;;;16759059;28;20331;-71
2022/07/29 05:07:15;;;;;;;6.83;5.97;;;;;22.00;98636.00;;;;16775794;28;20598;-71
2022/07/29 05:15:19;;;;;;;10.07;9.07;;;;;22.80;98627.00;;;;16771646;28;20221;-71
2022/07/29 05:23:22;;;;;;;6.70;6.30;;;;;24.20;98629.00;;;;16760861;28;20198;-72
2022/07/29 05:31:26;;;;;;;6.47;5.97;;;;;24.90;98625.00;;;;16746116;28;20318;-72
2022/07/29 05:39:28;;;;;;;9.67;8.67;;;;;24.50;98630.00;;;;16768294;28;20316;-71
2022/07/29 05:47:32;;;;;;;8.97;8.17;;;;;24.70;98630.00;;;;16755960;28;20830;-71
2022/07/29 05:55:34;;;;;;;10.53;8.23;;;;;24.50;98639.00;;;;16756352;28;20225;-71
2022/07/29 06:03:38;;;;;;;8.40;7.20;;;;;24.10;98646.00;;;;16785542;28;20208;-71
2022/07/29 06:11:41;;;;;;;9.67;8.80;;;;;24.00;98650.00;;;;16751502;28;20306;-72
2022/07/29 06:19:45;;;;;;;8.70;8.00;;;;;25.20;98651.00;;;;16776549;28;20946;-71
2022/07/29 06:27:47;;;;;;;7.30;6.70;;;;;25.10;98654.00;;;;16774774;28;20295;-71
2022/07/29 06:35:51;;;;;;;10.40;7.43;;;;;25.90;98657.00;;;;16792048;22;20231;-48
2022/07/29 06:43:53;;;;;;;11.10;6.30;;;;;26.70;98656.00;;;;16716208;28;20216;-49
2022/07/29 06:51:57;;;;;;;6.80;6.10;;;;;26.40;98661.00;;;;16757945;22;20221;-49
2022/07/29 07:00:00;;;;;;;11.13;6.17;;;;;26.10;98658.00;;;;16772864;28;20223;-49
2022/07/29 07:08:04;;;;;;;5.33;4.90;;;;;26.30;98663.00;;;;16748110;28;20213;-49
2022/07/29 07:16:06;;;;;;;5.60;5.20;;;;;26.60;98671.00;;;;16772553;28;20217;-47
2022/07/29 07:24:10;;;;;;;6.10;5.60;;;;;26.80;98679.00;;;;16761058;28;20224;-48
2022/07/29 07:32:15;;;;;;;5.30;4.80;;;;;27.50;98672.00;;;;16753149;28;20343;-50
2022/07/29 07:40:19;;;;;;;5.13;4.73;;;;;27.50;98684.00;;;;16776775;28;20231;-48
2022/07/29 07:48:22;;;;;;;5.43;4.93;;;;;27.10;98684.00;;;;16763092;28;20591;-49
2022/07/29 07:56:26;;;;;;;6.50;5.13;;;;;27.50;98675.00;;;;16780010;28;20689;-48
2022/07/29 08:04:28;;;;;;;5.50;5.00;;;;;27.90;98677.00;;;;16760379;28;20221;-49
2022/07/29 08:12:32;;;;;;;6.90;6.30;;;;;27.90;98672.00;;;;16771193;28;20229;-48
2022/07/29 08:20:35;;;;;;;5.00;4.60;;;;;28.30;98683.00;;;;16762872;28;20304;-47
2022/07/29 08:28:40;;;;;;;6.00;5.40;;;;;28.80;98680.00;;;;16777769;28;20342;-49
2022/07/29 08:36:42;;;;;;;6.07;5.57;;;;;28.90;98687.00;;;;16786190;28;20585;-49
2022/07/29 08:44:46;;;;;;;7.63;5.30;;;;;28.30;98678.00;;;;16806276;28;20313;-49
2022/07/29 08:52:49;;;;;;;5.30;4.80;;;;;28.80;98676.00;;;;16803224;28;20224;-46
2022/07/29 09:00:55;;;;;;;6.00;5.13;;;;;29.60;98675.00;;;;16797768;28;20214;-46
2022/07/29 09:09:00;;;;;;;5.13;4.50;;;;;29.50;98687.00;;;;16818094;28;20235;-46
2022/07/29 09:17:04;;;;;;;6.37;5.10;;;;;30.30;98688.00;;;;16761523;28;20205;-46
2022/07/29 09:25:07;;;;;;;6.70;5.20;;;;;29.70;98681.00;;;;16764578;28;20311;-46
2022/07/29 09:33:12;;;;;;;7.87;6.27;;;;;29.70;98680.00;;;;16748736;28;20233;-46
2022/07/29 09:41:14;;;;;;;9.40;5.70;;;;;30.10;98672.00;;;;16762109;28;20727;-47
2022/07/29 09:49:18;;;;;;;7.37;5.90;;;;;30.30;98665.00;;;;16758646;28;20612;-46
2022/07/29 09:57:25;;;;;;;5.80;5.40;;;;;30.50;98659.00;;;;16755311;28;20232;-46
2022/07/29 10:05:29;;;;;;;6.30;5.20;;;;;31.10;98657.00;;;;16746222;28;20216;-46
2022/07/29 10:13:32;;;;;;;7.13;6.50;;;;;29.70;98660.00;;;;16747444;28;20233;-46
2022/07/29 10:21:37;;;;;;;6.40;5.80;;;;;31.20;98655.00;;;;16762934;28;20217;-46
2022/07/29 10:29:40;;;;;;;7.80;5.43;;;;;30.50;98639.00;;;;16763408;28;20233;-46
2022/07/29 10:37:59;;;;;;;6.37;5.87;;;;;30.60;98642.00;;;;16770101;28;20225;-46
2022/07/29 10:46:03;;;;;;;6.63;6.07;;;;;30.50;98630.00;;;;16778247;28;20300;-46
2022/07/29 10:54:07;;;;;;;7.83;6.33;;;;;29.80;98632.00;;;;16781327;28;20554;-46
2022/07/29 11:02:44;;;;;;;9.60;7.60;;;;;28.80;98650.00;;;;16773170;28;20696;-46
2022/07/29 11:10:48;;;;;;;7.47;6.77;;;;;26.50;98663.00;;;;16760247;28;20233;-47
2022/07/29 11:19:21;;;;;;;7.07;5.80;;;;;23.40;98715.00;;;;16787257;28;20213;-48
2022/07/29 11:27:39;;;;;;;10.53;6.43;;;;;20.50;98786.00;;;;16787810;28;20632;-50
2022/07/29 11:35:41;;;;;;;11.03;6.30;;;;;19.40;98799.00;;;;16826352;28;20216;-49
2022/07/29 11:43:50;;;;;;;12.17;5.93;;;;;19.30;98768.00;;;;16800522;28;20224;-49
2022/07/29 11:51:53;;;;;;;6.30;5.17;;;;;18.90;98771.00;;;;16788233;28;20247;-49
2022/07/29 11:59:59;;;;;;;7.10;6.40;;;;;19.10;98769.00;;;;16830699;28;20600;-49
2022/07/29 12:08:11;;;;;;;5.43;5.03;;;;;20.10;98753.00;;;;16814840;28;20202;-50
2022/07/29 12:16:15;;;;;;;5.30;4.83;;;;;20.00;98746.00;;;;16771358;28;20233;-49
2022/07/29 12:24:21;;;;;;;5.43;4.60;;;;;19.90;98755.00;;;;16783900;28;20227;-48
2022/07/29 12:32:31;;;;;;;6.97;5.40;;;;;23.00;98732.00;;;;16779306;28;20242;-48
2022/07/29 12:40:34;;;;;;;4.03;3.73;;;;;23.00;98723.00;;;;16766590;28;21852;-49
2022/07/29 12:48:39;;;;;;;5.03;3.43;;;;;24.30;98710.00;;;;16773196;28;20296;-48
2022/07/29 12:56:42;;;;;;;7.50;3.40;;;;;24.20;98711.00;;;;16793369;23;20325;-82
2022/07/29 13:04:56;;;;;;;8.80;3.67;;;;;24.60;98707.00;;;;16765884;28;20678;-83
2022/07/29 13:13:07;;;;;;;4.60;3.60;;;;;25.90;98708.00;;;;16779481;28;20230;-84
2022/07/29 13:21:16;;;;;;;7.30;5.13;;;;;23.50;98730.00;;;;16778517;28;20209;-84
2022/07/29 13:29:18;;;;;;;5.77;5.30;;;;;24.00;98745.00;;;;16762587;28;20698;-85
2022/07/29 13:37:22;;;;;;;5.40;4.90;;;;;25.00;98732.00;;;;16759040;28;20789;-83
2022/07/29 13:45:24;;;;;;;6.37;5.60;;;;;25.20;98733.00;;;;16756056;28;20594;-84
2022/07/29 13:53:28;;;;;;;12.80;5.77;;;;;25.80;98722.00;;;;16765047;28;20280;-81
2022/07/29 14:01:31;;;;;;;8.40;6.50;;;;;26.90;98682.00;;;;16785960;28;20292;-81
2022/07/29 14:09:34;;;;;;;11.50;8.37;;;;;26.60;98665.00;;;;16796627;28;20213;-82
2022/07/29 14:17:37;;;;;;;7.93;7.33;;;;;25.20;98659.00;;;;16783017;28;20222;-82
2022/07/29 14:25:41;;;;;;;9.50;7.47;;;;;25.70;98679.00;;;;16779463;28;20221;-81
2022/07/29 14:33:43;;;;;;;8.30;6.40;;;;;27.30;98681.00;;;;16778400;28;20245;-80
2022/07/29 14:41:47;;;;;;;6.87;6.20;;;;;27.20;98682.00;;;;16774948;28;20301;-80
2022/07/29 14:49:50;;;;;;;7.30;6.53;;;;;27.00;98687.00;;;;16755642;28;20312;-83
2022/07/29 14:57:54;;;;;;;8.40;7.67;;;;;27.20;98698.00;;;;16766153;28;20257;-80
2022/07/29 15:05:57;;;;;;;8.13;7.47;;;;;27.20;98704.00;;;;16767690;28;20233;-78
2022/07/29 15:14:01;;;;;;;17.93;9.47;;;;;26.80;98696.00;;;;16783701;28;20215;-92
2022/07/29 15:22:04;;;;;;;31.40;11.17;;;;;27.80;98700.00;;;;16763778;28;20248;-86
2022/07/29 15:30:10;;;;;;;22.70;11.37;;;;;27.30;98692.00;;;;16762487;28;20268;-85
2022/07/29 15:38:13;;;;;;;24.10;12.63;;;;;27.10;98701.00;;;;16776394;28;20217;-82
2022/07/29 15:54:40;;;;;;;11.20;7.77;;;;;26.90;98695.00;;;;16782477;28;20239;-81
2022/07/29 16:02:44;;;;;;;9.23;7.93;;;;;27.10;98698.00;;;;16795992;28;20209;-81
2022/07/29 16:10:46;;;;;;;13.93;7.17;;;;;27.60;98687.00;;;;16779133;28;20237;-83
2022/07/29 16:18:50;;;;;;;16.13;14.67;;;;;27.30;98692.00;;;;16769143;28;20218;-81
2022/07/29 16:26:53;;;;;;;9.47;8.67;;;;;27.40;98698.00;;;;16791377;28;20330;-81
2022/07/29 16:35:00;;;;;;;8.63;7.93;;;;;27.10;98683.00;;;;16794366;28;20233;-81
2022/07/29 16:43:03;;;;;;;8.13;7.37;;;;;27.30;98688.00;;;;16801301;28;20277;-82
2022/07/29 16:51:07;;;;;;;8.87;7.73;;;;;27.70;98691.00;;;;16792335;28;20255;-83
2022/07/29 16:59:09;;;;;;;8.40;7.67;;;;;27.30;98687.00;;;;16789385;28;20224;-81
2022/07/29 17:07:14;;;;;;;7.63;7.03;;;;;27.40;98692.00;;;;16760352;28;20677;-81
2022/07/29 17:15:17;;;;;;;9.23;7.07;;;;;27.30;98698.00;;;;16784511;28;20233;-82
2022/07/29 17:23:21;;;;;;;8.00;7.20;;;;;27.10;98702.00;;;;16791748;28;20207;-82
2022/07/29 17:31:23;;;;;;;8.40;7.70;;;;;27.50;98704.00;;;;16791710;28;20745;-82
2022/07/29 17:39:27;;;;;;;8.53;7.80;;;;;27.40;98706.00;;;;16792486;28;20244;-83
2022/07/29 17:47:29;;;;;;;8.07;7.33;;;;;27.70;98709.00;;;;16778992;28;20220;-83
2022/07/29 17:55:33;;;;;;;6.80;6.30;;;;;27.90;98706.00;;;;16773570;28;20324;-83
2022/07/29 18:03:36;;;;;;;7.40;6.70;;;;;28.50;98714.00;;;;16777812;28;20295;-85
2022/07/29 18:11:40;;;;;;;9.53;6.87;;;;;30.00;98723.00;;;;16761515;28;20640;-82
2022/07/29 18:19:42;;;;;;;6.70;6.10;;;;;28.70;98728.00;;;;16756762;28;20264;-79
2022/07/29 18:27:46;;;;;;;8.43;7.87;;;;;26.90;98734.00;;;;16762136;28;20217;-80
2022/07/29 18:35:51;;;;;;;9.17;8.30;;;;;26.20;98727.00;;;;16751401;28;20233;-78
2022/07/29 18:43:54;;;;;;;10.70;9.90;;;;;26.00;98735.00;;;;16764612;28;20822;-79
2022/07/29 18:51:57;;;;;;;12.23;11.23;;;;;25.30;98744.00;;;;16760026;28;20300;-79
2022/07/29 19:00:01;;;;;;;11.47;10.57;;;;;24.80;98740.00;;;;16760288;28;20295;-79
2022/07/29 19:08:03;;;;;;;11.10;10.23;;;;;24.70;98755.00;;;;16771132;28;20249;-79
2022/07/29 19:16:10;;;;;;;12.60;11.60;;;;;24.70;98760.00;;;;16770167;28;20221;-79
2022/07/29 19:24:13;;;;;;;12.27;11.37;;;;;23.10;98778.00;;;;16763736;28;20225;-85
2022/07/29 19:32:17;;;;;;;14.30;13.20;;;;;21.90;98805.00;;;;16790803;28;20226;-86
2022/07/29 19:40:19;;;;;;;14.50;13.50;;;;;22.60;98810.00;;;;16808719;28;20221;-85
2022/07/29 19:48:23;;;;;;;15.23;13.80;;;;;22.90;98804.00;;;;16771433;28;20324;-86
2022/07/29 19:56:28;;;;;;;12.63;11.63;;;;;22.20;98811.00;;;;16779600;28;20309;-86
2022/07/29 20:04:32;;;;;;;14.43;13.13;;;;;21.70;98807.00;;;;16779115;28;20212;-86
2022/07/29 20:12:36;;;;;;;14.13;13.03;;;;;21.70;98803.00;;;;16780777;28;20778;-85
2022/07/29 20:20:40;;;;;;;12.93;11.77;;;;;21.70;98801.00;;;;16786569;28;20283;-85
2022/07/29 20:28:42;;;;;;;13.77;12.73;;;;;21.00;98814.00;;;;16804574;28;20845;-85
2022/07/29 20:36:47;;;;;;;12.23;11.33;;;;;21.60;98815.00;;;;16775110;28;20241;-85
2022/07/29 20:44:52;;;;;;;18.27;12.00;;;;;21.80;98806.00;;;;16773535;28;20231;-85
2022/07/29 20:52:56;;;;;;;12.17;11.37;;;;;20.90;98797.00;;;;16771183;28;20222;-86
2022/07/29 21:00:58;;;;;;;11.90;11.00;;;;;20.70;98805.00;;;;16762753;28;20232;-85
2022/07/29 21:09:03;;;;;;;11.00;10.10;;;;;20.20;98802.00;;;;16747536;28;20229;-87
2022/07/29 21:17:06;;;;;;;10.97;10.27;;;;;20.40;98821.00;;;;16754374;28;20649;-86
2022/07/29 21:25:11;;;;;;;11.10;10.10;;;;;20.30;98825.00;;;;16740059;28;20267;-85
2022/07/29 21:33:13;;;;;;;11.97;9.77;;;;;20.00;98822.00;;;;16753420;28;20647;-85
2022/07/29 21:41:17;;;;;;;10.97;10.13;;;;;19.80;98832.00;;;;16764028;28;20235;-86
2022/07/29 21:49:19;;;;;;;9.90;9.20;;;;;19.60;98833.00;;;;16752470;28;20302;-86
2022/07/29 21:57:25;;;;;;;10.73;9.13;;;;;19.20;98834.00;;;;16744203;28;20229;-86
2022/07/29 22:05:27;;;;;;;9.00;8.10;;;;;20.10;98822.00;;;;16747372;28;20230;-83
2022/07/29 22:13:31;;;;;;;8.63;8.03;;;;;19.90;98828.00;;;;16754010;28;20248;-85
2022/07/29 22:21:34;;;;;;;9.30;8.27;;;;;19.20;98839.00;;;;16764149;28;20213;-86
2022/07/29 22:29:37;;;;;;;10.57;9.63;;;;;19.50;98831.00;;;;16768489;28;20249;-85
2022/07/29 22:37:40;;;;;;;9.90;8.90;;;;;19.10;98848.00;;;;16770915;28;20216;-87
2022/07/29 22:45:44;;;;;;;9.33;8.40;;;;;19.40;98844.00;;;;16782734;28;20602;-85
2022/07/29 22:53:46;;;;;;;9.97;9.27;;;;;19.10;98834.00;;;;16761572;28;20225;-85
2022/07/29 23:01:50;;;;;;;9.43;8.67;;;;;19.00;98841.00;;;;16776649;28;20233;-85
2022/07/29 23:09:53;;;;;;;8.63;8.03;;;;;18.80;98829.00;;;;16780559;28;20294;-85
2022/07/29 23:17:57;;;;;;;10.50;8.97;;;;;19.00;98834.00;;;;16776197;28;20312;-85
2022/07/29 23:26:00;;;;;;;9.10;8.30;;;;;18.50;98832.00;;;;16752668;28;20218;-85
2022/07/29 23:34:03;;;;;;;14.33;9.40;;;;;19.00;98821.00;;;;16755490;28;20712;-87
2022/07/29 23:42:06;;;;;;;10.60;9.77;;;;;19.20;98827.00;;;;16792778;28;20572;-85
2022/07/29 23:50:11;;;;;;;10.50;9.60;;;;;18.80;98830.00;;;;16769560;28;20273;-86
2022/07/29 23:58:14;;;;;;;9.93;8.97;;;;;18.70;98849.00;;;;16783096;28;20274;-85
